createdAt,value
2022-08-28T00:02:14.206Z,100004.81
2022-08-28T00:04:43.733Z,100009.44
2022-08-28T00:07:12.054Z,100011.44
2022-08-28T00:09:39.906Z,100007.28
2022-08-28T00:12:09.262Z,100008.19
2022-08-28T00:14:38.612Z,100010.25
2022-08-28T00:17:06.549Z,100010.53
2022-08-28T00:19:38.467Z,99996.06
2022-08-28T00:22:07.417Z,100013.59
2022-08-28T00:24:35.274Z,100022.53
2022-08-28T00:27:35.508Z,100016.19
2022-08-28T00:30:03.414Z,100014.00
2022-08-28T00:32:31.286Z,100019.38
2022-08-28T00:35:01.686Z,100018.66
2022-08-28T00:37:29.670Z,100016.25
2022-08-28T00:39:57.639Z,100019.03
2022-08-28T00:42:27.533Z,100014.84
2022-08-28T00:44:55.431Z,100029.19
2022-08-28T00:47:26.274Z,100018.53
2022-08-28T00:49:54.471Z,100010.19
2022-08-28T00:52:21.432Z,99989.69
2022-08-28T00:54:59.296Z,100012.94
2022-08-28T00:57:30.256Z,99951.59
2022-08-28T00:59:58.396Z,100023.06
2022-08-28T01:02:27.573Z,100025.78
2022-08-28T01:04:55.738Z,100029.41
2022-08-28T01:07:23.858Z,100026.81
2022-08-28T01:09:53.450Z,100025.06
2022-08-28T01:12:23.539Z,100029.63
2022-08-28T01:14:54.654Z,100010.31
2022-08-28T01:17:24.375Z,100033.38
2022-08-28T01:19:57.132Z,100026.69
2022-08-28T01:22:28.148Z,100024.78
2022-08-28T01:25:01.309Z,100029.56
2022-08-28T01:27:30.023Z,100033.00
2022-08-28T01:29:58.685Z,100033.09
2022-08-28T01:32:32.132Z,99969.41
2022-08-28T01:35:02.068Z,99849.78
2022-08-28T01:37:30.222Z,99918.72
2022-08-28T01:39:58.518Z,99829.22
2022-08-28T01:42:28.149Z,99988.78
2022-08-28T01:44:56.328Z,100036.81
2022-08-28T01:47:24.378Z,99898.38
2022-08-28T01:49:52.497Z,99948.41
2022-08-28T01:52:26.409Z,99886.16
2022-08-28T01:54:55.049Z,99650.13
2022-08-28T01:57:25.563Z,100079.75
2022-08-28T01:59:55.697Z,99831.25
2022-08-28T02:02:24.079Z,99912.97
2022-08-28T02:04:52.719Z,99922.13
2022-08-28T02:07:20.785Z,99737.28
2022-08-28T02:09:48.941Z,100042.06
2022-08-28T02:12:17.811Z,99691.59
2022-08-28T02:14:46.022Z,100023.31
2022-08-28T02:17:15.485Z,99751.13
2022-08-28T02:19:43.547Z,100083.41
2022-08-28T02:22:13.581Z,99951.50
2022-08-28T02:24:42.817Z,100151.25
2022-08-28T02:27:13.893Z,99979.59
2022-08-28T02:29:42.085Z,99892.06
2022-08-28T02:32:10.194Z,100077.47
2022-08-28T02:34:40.513Z,100133.09
2022-08-28T02:37:08.956Z,99726.31
2022-08-28T02:39:37.235Z,99666.16
2022-08-28T02:42:05.829Z,99958.22
2022-08-28T02:44:33.876Z,99956.34
2022-08-28T02:47:02.034Z,99921.81
2022-08-28T02:49:31.301Z,99833.84
2022-08-28T02:52:06.860Z,99869.06
2022-08-28T02:54:35.062Z,100089.06
2022-08-28T02:57:03.128Z,99715.16
2022-08-28T02:59:32.225Z,100134.31
2022-08-28T03:02:04.044Z,99989.75
2022-08-28T03:04:32.649Z,99932.13
2022-08-28T03:07:00.637Z,99724.22
2022-08-28T03:09:30.657Z,99905.81
2022-08-28T03:11:58.834Z,99903.88
2022-08-28T03:14:27.927Z,100078.59
2022-08-28T03:16:56.348Z,99901.94
2022-08-28T03:19:24.853Z,99734.41
2022-08-28T03:21:55.722Z,100010.84
2022-08-28T03:24:24.089Z,99993.56
2022-08-28T03:26:54.117Z,99942.03
2022-08-28T03:29:22.355Z,99859.94
2022-08-28T03:31:50.659Z,99735.50
2022-08-28T03:34:18.832Z,99880.47
2022-08-28T03:36:47.231Z,99737.06
2022-08-28T03:39:16.186Z,99921.72
2022-08-28T03:41:44.448Z,99815.09
2022-08-28T03:44:14.426Z,99974.78
2022-08-28T03:46:43.253Z,99678.16
2022-08-28T03:49:11.690Z,100137.94
2022-08-28T03:51:40.134Z,100094.56
2022-08-28T03:54:08.452Z,100109.41
2022-08-28T03:56:36.693Z,99750.84
2022-08-28T03:59:05.392Z,99971.56
2022-08-28T04:01:37.919Z,99689.09
2022-08-28T04:04:06.209Z,100028.72
2022-08-28T04:06:34.539Z,100069.78
2022-08-28T04:09:04.327Z,100112.38
2022-08-28T04:11:32.348Z,99585.19
2022-08-28T04:14:00.495Z,99911.47
2022-08-28T04:16:28.787Z,99970.75
2022-08-28T04:18:59.311Z,99847.34
2022-08-28T04:21:28.115Z,99749.06
2022-08-28T04:23:56.203Z,100084.59
2022-08-28T04:26:25.769Z,100009.72
2022-08-28T04:28:55.278Z,99961.03
2022-08-28T04:31:32.236Z,99891.94
2022-08-28T04:34:02.480Z,100114.75
2022-08-28T04:36:30.618Z,100099.00
2022-08-28T04:38:58.693Z,99937.34
2022-08-28T04:41:26.812Z,99935.31
2022-08-28T04:43:56.648Z,100069.88
2022-08-28T04:46:24.838Z,100112.78
2022-08-28T04:48:53.237Z,100102.25
2022-08-28T04:51:22.739Z,99767.47
2022-08-28T04:53:50.988Z,99959.47
2022-08-28T04:56:19.185Z,100185.22
2022-08-28T04:58:47.778Z,99924.25
2022-08-28T05:01:18.840Z,100056.84
2022-08-28T05:03:47.131Z,99971.50
2022-08-28T05:06:15.924Z,100085.53
2022-08-28T05:08:45.414Z,99912.50
2022-08-28T05:11:14.729Z,99926.41
2022-08-28T05:14:04.538Z,99972.25
2022-08-28T05:16:33.319Z,100224.75
2022-08-28T05:19:01.562Z,100127.78
2022-08-28T05:21:29.751Z,99988.53
2022-08-28T05:24:02.151Z,100055.56
2022-08-28T05:26:30.830Z,99923.22
2022-08-28T05:29:05.969Z,100147.66
2022-08-28T05:31:37.989Z,99776.88
2022-08-28T05:34:06.838Z,99992.81
2022-08-28T05:36:39.005Z,100190.25
2022-08-28T05:39:10.531Z,99929.38
2022-08-28T05:41:39.381Z,99942.38
2022-08-28T05:44:09.409Z,100151.13
2022-08-28T05:46:37.992Z,99850.91
2022-08-28T05:49:10.017Z,99882.38
2022-08-28T05:51:40.305Z,100112.84
2022-08-28T05:54:10.335Z,99905.16
2022-08-28T05:56:39.911Z,99875.22
2022-08-28T05:59:09.023Z,99886.81
2022-08-28T06:01:40.120Z,100051.09
2022-08-28T06:04:10.901Z,100157.19
2022-08-28T06:06:40.500Z,99962.13
2022-08-28T06:09:17.169Z,99925.09
2022-08-28T06:11:46.516Z,100183.13
2022-08-28T06:14:15.770Z,99761.34
2022-08-28T06:16:45.710Z,100033.63
2022-08-28T06:19:14.242Z,99967.88
2022-08-28T06:21:43.673Z,99768.91
2022-08-28T06:24:16.566Z,99957.50
2022-08-28T06:26:46.137Z,99743.59
2022-08-28T06:29:16.020Z,100170.19
2022-08-28T06:31:47.932Z,100178.28
2022-08-28T06:34:16.484Z,100055.88
2022-08-28T06:36:53.140Z,100193.72
2022-08-28T06:39:25.288Z,100014.38
2022-08-28T06:41:56.202Z,100246.59
2022-08-28T06:44:24.612Z,99978.03
2022-08-28T06:46:54.012Z,100019.22
2022-08-28T06:49:22.519Z,100123.44
2022-08-28T06:51:51.503Z,100197.59
2022-08-28T06:54:23.113Z,100070.28
2022-08-28T06:56:54.628Z,99944.81
2022-08-28T06:59:23.644Z,100014.69
2022-08-28T07:01:54.619Z,100140.16
2022-08-28T07:04:23.077Z,100160.56
2022-08-28T07:06:54.511Z,100122.81
2022-08-28T07:09:23.214Z,100117.38
2022-08-28T07:11:53.387Z,99924.22
2022-08-28T07:14:21.724Z,100216.97
2022-08-28T07:16:50.503Z,99874.22
2022-08-28T07:19:20.552Z,100011.69
2022-08-28T07:21:49.414Z,100025.00
2022-08-28T07:24:18.085Z,100015.00
2022-08-28T07:26:49.199Z,100085.69
2022-08-28T07:29:19.472Z,99998.97
2022-08-28T07:31:49.919Z,99923.00
2022-08-28T07:34:18.221Z,100196.59
2022-08-28T07:36:46.199Z,100199.75
2022-08-28T07:39:15.018Z,100194.41
2022-08-28T07:41:43.157Z,100205.66
2022-08-28T07:44:29.256Z,100208.84
2022-08-28T07:46:59.377Z,100217.91
2022-08-28T07:49:27.325Z,100186.91
2022-08-28T07:51:55.225Z,100204.78
2022-08-28T07:54:23.120Z,100223.03
2022-08-28T07:56:50.986Z,100213.25
2022-08-28T07:59:19.371Z,100213.81
2022-08-28T08:01:48.643Z,100200.09
2022-08-28T08:04:18.216Z,100212.38
2022-08-28T08:06:46.908Z,100217.22
2022-08-28T08:09:18.465Z,100203.63
2022-08-28T08:11:49.055Z,100242.63
2022-08-28T08:14:17.352Z,100209.69
2022-08-28T08:16:46.471Z,100220.09
2022-08-28T08:19:15.075Z,100221.38
2022-08-28T08:21:45.552Z,100199.38
2022-08-28T08:24:19.680Z,100227.06
2022-08-28T08:26:59.057Z,100185.34
2022-08-28T08:29:29.333Z,100227.44
2022-08-28T08:31:58.100Z,100224.03
2022-08-28T08:34:26.557Z,100231.06
2022-08-28T08:36:56.285Z,100233.00
2022-08-28T08:39:24.364Z,100223.91
2022-08-28T08:41:54.311Z,100232.53
2022-08-28T08:44:33.734Z,100235.91
2022-08-28T08:47:13.255Z,100218.38
2022-08-28T08:49:44.738Z,100211.16
2022-08-28T08:52:25.452Z,100231.06
2022-08-28T08:55:02.478Z,100249.31
2022-08-28T08:57:30.498Z,100236.53
2022-08-28T08:59:58.437Z,100167.69
2022-08-28T09:02:31.576Z,100197.38
2022-08-28T09:05:02.874Z,100168.25
2022-08-28T09:07:37.974Z,100132.50
2022-08-28T09:10:26.015Z,100247.25
2022-08-28T09:12:57.829Z,100234.91
2022-08-28T09:15:28.929Z,100243.44
2022-08-28T09:18:07.121Z,100244.13
2022-08-28T09:20:35.310Z,100237.66
2022-08-28T09:23:13.547Z,100234.09
2022-08-28T09:25:52.308Z,100243.13
2022-08-28T09:28:22.921Z,100247.06
2022-08-28T09:30:57.501Z,100232.66
2022-08-28T09:33:30.172Z,100246.97
2022-08-28T09:35:58.177Z,100231.75
2022-08-28T09:38:30.235Z,100243.13
2022-08-28T09:41:30.555Z,100234.41
2022-08-28T09:43:58.562Z,100251.00
2022-08-28T09:46:29.609Z,100244.09
2022-08-28T09:49:09.811Z,100249.88
2022-08-28T09:51:39.384Z,100244.75
2022-08-28T09:54:13.075Z,100247.50
2022-08-28T09:56:41.870Z,100246.47
2022-08-28T09:59:10.493Z,100246.72
2022-08-28T10:01:45.400Z,100231.97
2022-08-28T10:04:22.445Z,100240.56
2022-08-28T10:06:52.782Z,100177.91
2022-08-28T10:09:27.968Z,100224.94
2022-08-28T10:11:59.476Z,100243.16
2022-08-28T10:14:37.350Z,100224.94
2022-08-28T10:17:09.988Z,100194.31
2022-08-28T10:19:42.803Z,100222.81
2022-08-28T10:22:18.089Z,100236.34
2022-08-28T10:24:58.947Z,100232.78
2022-08-28T10:27:35.804Z,100202.94
2022-08-28T10:30:12.449Z,100205.44
2022-08-28T10:32:55.691Z,100238.47
2022-08-28T10:35:25.331Z,100222.34
2022-08-28T10:37:56.884Z,100227.78
2022-08-28T10:40:27.724Z,100231.25
2022-08-28T10:42:57.409Z,100228.94
2022-08-28T10:45:25.849Z,100230.63
2022-08-28T10:47:55.704Z,100232.31
2022-08-28T10:50:25.390Z,100190.59
2022-08-28T10:52:57.523Z,100244.38
2022-08-28T10:55:32.268Z,100239.50
2022-08-28T10:58:02.562Z,100234.66
2022-08-28T11:00:30.579Z,100235.06
2022-08-28T11:03:00.139Z,100226.88
2022-08-28T11:05:30.597Z,100232.09
2022-08-28T11:07:59.457Z,100217.06
2022-08-28T11:10:48.413Z,100238.91
2022-08-28T11:13:33.036Z,100235.47
2022-08-28T11:16:01.007Z,100226.78
2022-08-28T11:18:53.897Z,100223.38
2022-08-28T11:21:24.641Z,100226.81
2022-08-28T11:23:55.245Z,100199.19
2022-08-28T11:26:33.945Z,100234.00
2022-08-28T11:29:03.170Z,100236.25
2022-08-28T11:31:39.381Z,100231.28
2022-08-28T11:34:10.247Z,100225.09
2022-08-28T11:37:00.826Z,100214.81
2022-08-28T11:39:29.078Z,100230.78
2022-08-28T11:42:38.679Z,100210.38
2022-08-28T11:45:07.565Z,100219.31
2022-08-28T11:47:38.350Z,100220.31
2022-08-28T11:50:14.700Z,100212.97
2022-08-28T11:52:52.388Z,100223.13
2022-08-28T11:55:24.684Z,100229.38
2022-08-28T11:58:15.840Z,100221.84
2022-08-28T12:00:54.214Z,100185.31
2022-08-28T12:03:27.632Z,100208.19
2022-08-28T12:05:56.557Z,100218.50
2022-08-28T12:08:57.754Z,100218.44
2022-08-28T12:11:51.661Z,100212.75
2022-08-28T12:15:07.407Z,100209.75
2022-08-28T12:17:57.942Z,100207.53
2022-08-28T12:20:38.296Z,100124.78
2022-08-28T12:23:37.407Z,100201.56
2022-08-28T12:26:06.631Z,100218.25
2022-08-28T12:28:38.720Z,100221.72
2022-08-28T12:31:51.486Z,100212.00
2022-08-28T12:34:24.843Z,100228.25
2022-08-28T12:36:57.863Z,100196.13
2022-08-28T12:39:25.811Z,100194.66
2022-08-28T12:41:53.913Z,100211.84
2022-08-28T12:44:25.012Z,100194.53
2022-08-28T12:46:52.990Z,100200.38
2022-08-28T12:49:33.414Z,100169.00
2022-08-28T12:52:16.694Z,100178.25
2022-08-28T12:54:45.274Z,100100.75
2022-08-28T12:57:14.187Z,100213.03
2022-08-28T12:59:43.863Z,100184.09
2022-08-28T13:02:14.281Z,100130.91
2022-08-28T13:04:55.630Z,100171.47
2022-08-28T13:07:27.799Z,100187.28
2022-08-28T13:09:57.160Z,100132.72
2022-08-28T13:12:44.100Z,100152.00
2022-08-28T13:15:15.539Z,100190.81
2022-08-28T13:17:53.257Z,100182.38
2022-08-28T13:20:30.704Z,100184.44
2022-08-28T13:23:00.016Z,100204.91
2022-08-28T13:25:29.521Z,100180.03
2022-08-28T13:27:59.217Z,100103.69
2022-08-28T13:30:28.695Z,100094.34
2022-08-28T13:32:58.140Z,100087.09
2022-08-28T13:35:41.216Z,100169.16
2022-08-28T13:38:10.911Z,100177.84
2022-08-28T13:40:58.889Z,100024.81
2022-08-28T13:43:28.810Z,100051.38
2022-08-28T13:45:56.892Z,100052.81
2022-08-28T13:48:25.793Z,100126.09
2022-08-28T13:50:58.526Z,100112.47
2022-08-28T13:53:27.341Z,100103.69
2022-08-28T13:55:55.880Z,100118.03
2022-08-28T13:58:24.127Z,100137.72
2022-08-28T14:00:52.071Z,100152.91
2022-08-28T14:03:38.749Z,100151.56
2022-08-28T14:06:11.632Z,100155.34
2022-08-28T14:08:40.116Z,100148.00
2022-08-28T14:11:08.288Z,100127.28
2022-08-28T14:13:40.736Z,100137.56
2022-08-28T14:16:16.838Z,100144.63
2022-08-28T14:18:44.807Z,100140.56
2022-08-28T14:21:14.747Z,100108.53
2022-08-28T14:23:43.038Z,100084.97
2022-08-28T14:26:11.189Z,100138.78
2022-08-28T14:28:39.024Z,100138.72
2022-08-28T14:31:11.069Z,100050.75
2022-08-28T14:33:45.169Z,100134.53
2022-08-28T14:36:17.865Z,100060.47
2022-08-28T14:38:45.973Z,100125.13
2022-08-28T14:41:14.838Z,100129.88
2022-08-28T14:43:42.728Z,100123.03
2022-08-28T14:47:06.588Z,100125.84
2022-08-28T14:49:34.424Z,100128.81
2022-08-28T14:52:03.935Z,100123.38
2022-08-28T14:54:31.831Z,100047.41
2022-08-28T14:56:59.681Z,100124.56
2022-08-28T14:59:28.879Z,100143.91
2022-08-28T15:02:00.183Z,100142.09
2022-08-28T15:04:29.119Z,100075.50
2022-08-28T15:06:58.053Z,100120.59
2022-08-28T15:09:27.287Z,100124.66
2022-08-28T15:11:55.154Z,100131.69
2022-08-28T15:14:23.076Z,100127.25
2022-08-28T15:16:51.069Z,100127.94
2022-08-28T15:19:19.127Z,100145.84
2022-08-28T15:21:48.080Z,100138.38
2022-08-28T15:24:16.886Z,100036.84
2022-08-28T15:26:46.878Z,100131.50
2022-08-28T15:29:14.827Z,100129.88
2022-08-28T15:31:45.925Z,100107.06
2022-08-28T15:34:15.596Z,100092.53
2022-08-28T15:36:44.051Z,100104.69
2022-08-28T15:39:30.094Z,100091.09
2022-08-28T15:41:59.555Z,100122.13
2022-08-28T15:44:27.575Z,100123.00
2022-08-28T15:46:57.668Z,100095.75
2022-08-28T15:49:26.036Z,100129.28
2022-08-28T15:51:53.909Z,100079.88
2022-08-28T15:54:23.296Z,100129.16
2022-08-28T15:56:53.773Z,100029.41
2022-08-28T15:59:23.728Z,100132.97
2022-08-28T16:01:54.771Z,100108.25
2022-08-28T16:04:22.673Z,100130.81
2022-08-28T16:06:50.780Z,100112.00
2022-08-28T16:09:28.654Z,100122.22
2022-08-28T16:11:56.577Z,100128.75
2022-08-28T16:14:29.663Z,100125.63
2022-08-28T16:16:57.681Z,100119.84
2022-08-28T16:19:32.095Z,100122.63
2022-08-28T16:22:00.296Z,100120.50
2022-08-28T16:24:28.267Z,100091.50
2022-08-28T16:26:56.105Z,100126.19
2022-08-28T16:29:24.329Z,100125.63
2022-08-28T16:31:53.646Z,100101.16
2022-08-28T16:34:21.587Z,100117.06
2022-08-28T16:36:50.442Z,100147.75
2022-08-28T16:39:18.341Z,100123.94
2022-08-28T16:41:49.983Z,100127.03
2022-08-28T16:44:19.729Z,100108.81
2022-08-28T16:46:48.167Z,100077.19
2022-08-28T16:49:17.594Z,100119.25
2022-08-28T16:51:45.493Z,100110.31
2022-08-28T16:54:13.452Z,100048.56
2022-08-28T16:56:41.489Z,100121.28
2022-08-28T16:59:10.506Z,100113.53
2022-08-28T17:01:40.716Z,100125.34
2022-08-28T17:04:08.896Z,100119.34
2022-08-28T17:06:38.219Z,100118.69
2022-08-28T17:09:06.129Z,100040.34
2022-08-28T17:11:34.190Z,100124.75
2022-08-28T17:14:03.158Z,100091.34
2022-08-28T17:16:31.580Z,100128.38
2022-08-28T17:18:59.566Z,100119.13
2022-08-28T17:21:50.099Z,100034.09
2022-08-28T17:24:19.420Z,100110.59
2022-08-28T17:26:47.737Z,99848.88
2022-08-28T17:29:15.744Z,100124.41
2022-08-28T17:31:58.651Z,100043.19
2022-08-28T17:34:42.068Z,99803.53
2022-08-28T17:41:06.277Z,99909.38
2022-08-28T17:43:36.091Z,100050.63
2022-08-28T17:46:04.228Z,100115.88
2022-08-28T17:48:32.734Z,100093.19
2022-08-28T17:51:02.094Z,100009.88
2022-08-28T17:53:29.961Z,100018.69
2022-08-28T17:56:00.220Z,100149.41
2022-08-28T17:58:37.472Z,100160.06
2022-08-28T18:01:05.642Z,100041.38
2022-08-28T18:03:43.940Z,99980.28
2022-08-28T18:10:55.188Z,100146.41
2022-08-28T18:13:48.942Z,99948.00
2022-08-28T18:16:39.028Z,100194.63
2022-08-28T18:19:10.583Z,99980.13
2022-08-28T18:21:41.805Z,99891.06
2022-08-28T18:24:10.238Z,100157.72
2022-08-28T18:26:38.142Z,100153.09
2022-08-28T18:29:07.562Z,100097.41
2022-08-28T18:31:36.821Z,100163.38
2022-08-28T18:34:10.030Z,100134.63
2022-08-28T18:36:43.735Z,99986.06
2022-08-28T18:39:11.873Z,100146.53
2022-08-28T18:41:43.375Z,100223.66
2022-08-28T18:47:34.954Z,100177.31
2022-08-28T18:50:05.169Z,100182.22
2022-08-28T18:52:33.204Z,100189.53
2022-08-28T18:55:02.077Z,100181.31
2022-08-28T18:57:32.968Z,100188.56
2022-08-28T19:00:02.267Z,100199.56
2022-08-28T19:02:30.295Z,100199.91
2022-08-28T19:04:58.344Z,100203.00
2022-08-28T19:07:26.197Z,100215.78
2022-08-28T19:09:56.463Z,100212.53
2022-08-28T19:12:24.314Z,100213.91
2022-08-28T19:14:54.375Z,100227.31
2022-08-28T19:17:23.629Z,100228.47
2022-08-28T19:19:51.551Z,100227.94
2022-08-28T19:22:19.683Z,100222.06
2022-08-28T19:24:47.689Z,100228.53
2022-08-28T19:27:15.913Z,100228.88
2022-08-28T19:29:43.753Z,100238.75
2022-08-28T19:32:11.698Z,100236.44
2022-08-28T19:34:40.947Z,100237.63
2022-08-28T19:37:08.800Z,100240.44
2022-08-28T19:39:37.227Z,100237.06
2022-08-28T19:42:05.850Z,100233.09
2022-08-28T19:44:33.907Z,100241.88
2022-08-28T19:47:01.899Z,100246.47
2022-08-28T19:49:29.900Z,100245.91
2022-08-28T19:51:59.592Z,100224.91
2022-08-28T19:54:27.699Z,100251.69
2022-08-28T19:56:58.152Z,100237.66
2022-08-28T20:02:07.365Z,100262.16
2022-08-28T20:04:35.296Z,100260.66
2022-08-28T20:07:15.547Z,100264.53
2022-08-28T20:09:43.392Z,100260.19
2022-08-28T20:12:11.408Z,100268.44
2022-08-28T20:14:41.480Z,100270.41
2022-08-28T20:17:09.488Z,100275.97
2022-08-28T20:19:37.376Z,100274.34
2022-08-28T20:22:05.394Z,100280.84
2022-08-28T20:24:34.956Z,100287.41
2022-08-28T20:27:02.892Z,100282.88
2022-08-28T20:29:30.829Z,100286.53
2022-08-28T20:31:58.800Z,100288.44
2022-08-28T20:34:26.667Z,100293.91
2022-08-28T20:36:55.027Z,100284.59
2022-08-28T20:39:23.522Z,100292.59
2022-08-28T20:41:53.020Z,100299.06
2022-08-28T20:44:21.012Z,100293.09
2022-08-28T20:46:51.226Z,100297.78
2022-08-28T20:49:22.499Z,100306.84
2022-08-28T20:52:01.175Z,100306.19
2022-08-28T20:54:30.354Z,100309.19
2022-08-28T20:57:01.819Z,100300.66
2022-08-28T20:59:37.249Z,100304.25
2022-08-28T21:02:09.464Z,100278.63
2022-08-28T21:04:37.652Z,100308.22
2022-08-28T21:07:06.776Z,100285.97
2022-08-28T21:10:04.560Z,100312.94
2022-08-28T21:12:24.890Z,100325.50
2022-08-28T21:14:53.352Z,100329.28
2022-08-28T21:17:29.754Z,100334.75
2022-08-28T21:20:02.933Z,100331.53
2022-08-28T21:22:35.368Z,100329.13
2022-08-28T21:25:04.463Z,100334.56
2022-08-28T21:27:33.763Z,100323.47
2022-08-28T21:30:02.290Z,100335.66
2022-08-28T21:32:30.434Z,100336.88
2022-08-28T21:34:58.494Z,100332.69
2022-08-28T21:37:26.399Z,100334.53
2022-08-28T21:39:56.627Z,100340.06
2022-08-28T21:42:24.666Z,100366.00
2022-08-28T21:44:54.607Z,100331.06
2022-08-28T21:47:23.150Z,100350.38
2022-08-28T21:49:51.460Z,100324.00
2022-08-28T21:52:19.349Z,100351.78
2022-08-28T21:54:47.311Z,100347.44
2022-08-28T21:57:15.237Z,100344.00
2022-08-28T21:59:43.841Z,100348.56
2022-08-28T22:02:13.049Z,100350.38
2022-08-28T22:04:41.012Z,100334.09
2022-08-28T22:07:11.111Z,100350.59
2022-08-28T22:09:39.191Z,100346.19
2022-08-28T22:12:08.177Z,100343.59
2022-08-28T22:14:36.059Z,100346.25
2022-08-28T22:17:07.545Z,100347.16
2022-08-28T22:19:39.543Z,100351.63
2022-08-28T22:22:33.275Z,100354.38
2022-08-28T22:25:01.126Z,100359.75
2022-08-28T22:27:31.838Z,100357.19
2022-08-28T22:29:59.806Z,100344.16
2022-08-28T22:32:28.044Z,100356.41
2022-08-28T22:34:57.269Z,100356.53
2022-08-28T22:37:25.767Z,100352.19
2022-08-28T22:39:53.761Z,100354.00
2022-08-28T22:42:21.710Z,100348.72
2022-08-28T22:44:49.552Z,100360.38
2022-08-28T22:47:18.846Z,100343.63
2022-08-28T22:49:46.929Z,100342.84
2022-08-28T22:52:16.532Z,100346.50
2022-08-28T22:54:44.411Z,100343.94
2022-08-28T22:57:12.432Z,100333.47
2022-08-28T22:59:40.275Z,100318.97
2022-08-28T23:02:08.351Z,100343.31
2022-08-28T23:04:36.322Z,100342.47
2022-08-28T23:07:04.152Z,100346.13
2022-08-28T23:09:33.919Z,100347.00
2022-08-28T23:12:04.526Z,100344.44
2022-08-28T23:14:32.690Z,100336.56
2022-08-28T23:17:00.626Z,100328.75
2022-08-28T23:19:29.171Z,100326.16
2022-08-28T23:21:58.958Z,100326.19
2022-08-28T23:24:26.961Z,100319.63
2022-08-28T23:26:56.160Z,100294.31
2022-08-28T23:29:24.081Z,100322.13
2022-08-28T23:31:51.952Z,100305.69
2022-08-28T23:34:19.803Z,100315.63
2022-08-28T23:36:47.788Z,100312.78
2022-08-28T23:39:15.733Z,100319.00
2022-08-28T23:41:43.844Z,100314.66
2022-08-28T23:44:13.026Z,100323.63
2022-08-28T23:46:41.881Z,100318.47
2022-08-28T23:49:10.899Z,100293.41
2022-08-28T23:51:38.931Z,100305.81
2022-08-28T23:54:06.979Z,100326.72
2022-08-28T23:56:34.982Z,100322.38
2022-08-28T23:59:02.974Z,100287.66
